sensor_id;sensor_type;location;lat;lon;timestamp;pressure;altitude;pressure_sealevel;temperature;humidity
73063;BME280;61230;46.328;19.972;2023-05-07T00:02:16;100558.38;;;15.65;70.18
73063;BME280;61230;46.328;19.972;2023-05-07T00:04:44;100554.88;;;15.64;69.90
73063;BME280;61230;46.328;19.972;2023-05-07T00:07:12;100560.19;;;15.64;69.89
73063;BME280;61230;46.328;19.972;2023-05-07T00:09:39;100551.56;;;15.62;69.98
73063;BME280;61230;46.328;19.972;2023-05-07T00:12:07;100541.16;;;15.52;70.26
73063;BME280;61230;46.328;19.972;2023-05-07T00:14:35;100545.63;;;15.60;70.03
73063;BME280;61230;46.328;19.972;2023-05-07T00:17:03;100546.59;;;15.59;70.18
73063;BME280;61230;46.328;19.972;2023-05-07T00:19:31;100541.00;;;15.54;70.02
73063;BME280;61230;46.328;19.972;2023-05-07T00:21:59;100549.28;;;15.51;70.44
73063;BME280;61230;46.328;19.972;2023-05-07T00:24:26;100547.62;;;15.50;70.43
73063;BME280;61230;46.328;19.972;2023-05-07T00:26:54;100544.16;;;15.49;69.99
73063;BME280;61230;46.328;19.972;2023-05-07T00:29:22;100551.09;;;15.50;70.12
73063;BME280;61230;46.328;19.972;2023-05-07T00:31:50;100551.59;;;15.46;70.56
73063;BME280;61230;46.328;19.972;2023-05-07T00:34:18;100552.56;;;15.45;70.71
73063;BME280;61230;46.328;19.972;2023-05-07T00:36:46;100552.25;;;15.40;70.73
73063;BME280;61230;46.328;19.972;2023-05-07T00:39:14;100552.59;;;15.37;70.58
73063;BME280;61230;46.328;19.972;2023-05-07T00:41:41;100550.28;;;15.34;70.45
73063;BME280;61230;46.328;19.972;2023-05-07T00:44:09;100554.09;;;15.31;70.33
73063;BME280;61230;46.328;19.972;2023-05-07T00:46:37;100554.09;;;15.31;70.42
73063;BME280;61230;46.328;19.972;2023-05-07T00:49:05;100557.06;;;15.28;70.42
73063;BME280;61230;46.328;19.972;2023-05-07T00:51:34;100549.28;;;15.27;70.66
73063;BME280;61230;46.328;19.972;2023-05-07T00:54:04;100545.81;;;15.26;71.04
73063;BME280;61230;46.328;19.972;2023-05-07T00:56:32;100547.62;;;15.26;70.95
73063;BME280;61230;46.328;19.972;2023-05-07T00:59:02;100546.16;;;15.23;71.01
73063;BME280;61230;46.328;19.972;2023-05-07T01:01:31;100533.91;;;15.14;70.99
73063;BME280;61230;46.328;19.972;2023-05-07T01:03:59;100545.84;;;15.18;71.31
73063;BME280;61230;46.328;19.972;2023-05-07T01:06:28;100547.47;;;15.19;71.22
73063;BME280;61230;46.328;19.972;2023-05-07T01:08:57;100550.62;;;15.15;71.44
73063;BME280;61230;46.328;19.972;2023-05-07T01:11:25;100550.78;;;15.13;71.64
73063;BME280;61230;46.328;19.972;2023-05-07T01:13:53;100552.78;;;15.11;71.43
73063;BME280;61230;46.328;19.972;2023-05-07T01:16:21;100548.97;;;15.06;71.87
73063;BME280;61230;46.328;19.972;2023-05-07T01:18:49;100555.94;;;15.07;71.69
73063;BME280;61230;46.328;19.972;2023-05-07T01:21:17;100518.19;;;14.72;71.89
73063;BME280;61230;46.328;19.972;2023-05-07T01:23:45;100561.06;;;15.00;71.93
73063;BME280;61230;46.328;19.972;2023-05-07T01:26:13;100560.75;;;14.95;72.44
73063;BME280;61230;46.328;19.972;2023-05-07T01:28:42;100565.22;;;14.94;72.50
73063;BME280;61230;46.328;19.972;2023-05-07T01:31:11;100567.34;;;14.91;73.17
73063;BME280;61230;46.328;19.972;2023-05-07T01:33:41;100522.97;;;14.61;73.61
73063;BME280;61230;46.328;19.972;2023-05-07T01:36:12;100571.31;;;14.79;74.07
73063;BME280;61230;46.328;19.972;2023-05-07T01:38:41;100576.78;;;14.77;74.22
73063;BME280;61230;46.328;19.972;2023-05-07T01:41:09;100564.03;;;14.73;74.62
73063;BME280;61230;46.328;19.972;2023-05-07T01:43:40;100568.50;;;14.72;74.28
73063;BME280;61230;46.328;19.972;2023-05-07T01:46:09;100573.81;;;14.72;74.28
73063;BME280;61230;46.328;19.972;2023-05-07T01:48:38;100568.66;;;14.71;74.54
73063;BME280;61230;46.328;19.972;2023-05-07T01:51:08;100572.13;;;14.71;74.73
73063;BME280;61230;46.328;19.972;2023-05-07T01:53:37;100573.13;;;14.70;74.90
73063;BME280;61230;46.328;19.972;2023-05-07T01:56:06;100570.47;;;14.70;75.32
73063;BME280;61230;46.328;19.972;2023-05-07T01:58:34;100562.84;;;14.67;75.58
73063;BME280;61230;46.328;19.972;2023-05-07T02:01:02;100562.53;;;14.70;75.24
73063;BME280;61230;46.328;19.972;2023-05-07T02:03:30;100567.81;;;14.70;75.29
73063;BME280;61230;46.328;19.972;2023-05-07T02:05:59;100565.87;;;14.72;75.38
73063;BME280;61230;46.328;19.972;2023-05-07T02:08:26;100559.06;;;14.70;75.43
73063;BME280;61230;46.328;19.972;2023-05-07T02:10:54;100563.53;;;14.69;75.44
73063;BME280;61230;46.328;19.972;2023-05-07T02:13:22;100557.41;;;14.69;75.55
73063;BME280;61230;46.328;19.972;2023-05-07T02:15:51;100549.28;;;14.70;75.50
73063;BME280;61230;46.328;19.972;2023-05-07T02:18:20;100552.09;;;14.69;75.78
73063;BME280;61230;46.328;19.972;2023-05-07T02:20:47;100547.12;;;14.66;76.04
73063;BME280;61230;46.328;19.972;2023-05-07T02:23:15;100552.09;;;14.69;76.39
73063;BME280;61230;46.328;19.972;2023-05-07T02:25:43;100546.81;;;14.69;75.82
73063;BME280;61230;46.328;19.972;2023-05-07T02:28:11;100540.84;;;14.67;76.18
73063;BME280;61230;46.328;19.972;2023-05-07T02:30:39;100536.53;;;14.66;75.52
73063;BME280;61230;46.328;19.972;2023-05-07T02:33:08;100535.56;;;14.67;75.28
73063;BME280;61230;46.328;19.972;2023-05-07T02:35:36;100527.63;;;14.67;74.95
73063;BME280;61230;46.328;19.972;2023-05-07T02:38:03;100531.91;;;14.68;74.90
73063;BME280;61230;46.328;19.972;2023-05-07T02:40:32;100522.47;;;14.65;75.04
73063;BME280;61230;46.328;19.972;2023-05-07T02:43:01;100523.31;;;14.66;74.86
73063;BME280;61230;46.328;19.972;2023-05-07T02:45:28;100525.94;;;14.66;74.74
73063;BME280;61230;46.328;19.972;2023-05-07T02:47:56;100520.66;;;14.66;74.60
73063;BME280;61230;46.328;19.972;2023-05-07T02:50:24;100528.78;;;14.64;74.60
73063;BME280;61230;46.328;19.972;2023-05-07T02:52:52;100527.94;;;14.64;75.52
73063;BME280;61230;46.328;19.972;2023-05-07T02:55:21;100537.19;;;14.60;75.77
73063;BME280;61230;46.328;19.972;2023-05-07T02:57:48;100535.53;;;14.59;75.68
73063;BME280;61230;46.328;19.972;2023-05-07T03:00:18;100534.03;;;14.48;76.36
73063;BME280;61230;46.328;19.972;2023-05-07T03:02:46;100541.31;;;14.46;76.61
73063;BME280;61230;46.328;19.972;2023-05-07T03:05:14;100530.84;;;14.36;76.51
73063;BME280;61230;46.328;19.972;2023-05-07T03:07:42;100504.16;;;14.22;76.32
73063;BME280;61230;46.328;19.972;2023-05-07T03:10:13;100552.91;;;14.53;76.47
73063;BME280;61230;46.328;19.972;2023-05-07T03:12:40;100550.44;;;14.52;75.92
73063;BME280;61230;46.328;19.972;2023-05-07T03:15:09;100558.38;;;14.52;76.23
73063;BME280;61230;46.328;19.972;2023-05-07T03:17:38;100516.22;;;14.16;76.36
73063;BME280;61230;46.328;19.972;2023-05-07T03:20:06;100569.94;;;14.43;76.70
73063;BME280;61230;46.328;19.972;2023-05-07T03:22:35;100565.59;;;14.33;76.81
73063;BME280;61230;46.328;19.972;2023-05-07T03:25:03;100573.22;;;14.36;76.58
73063;BME280;61230;46.328;19.972;2023-05-07T03:27:31;100571.91;;;14.32;77.20
73063;BME280;61230;46.328;19.972;2023-05-07T03:29:59;100567.53;;;14.23;77.63
73063;BME280;61230;46.328;19.972;2023-05-07T03:32:27;100577.91;;;14.17;77.59
73063;BME280;61230;46.328;19.972;2023-05-07T03:34:55;100527.03;;;13.81;78.26
73063;BME280;61230;46.328;19.972;2023-05-07T03:37:23;100525.31;;;13.72;78.69
73063;BME280;61230;46.328;19.972;2023-05-07T03:39:51;100578.06;;;14.07;78.07
73063;BME280;61230;46.328;19.972;2023-05-07T03:42:19;100574.25;;;14.02;78.48
73063;BME280;61230;46.328;19.972;2023-05-07T03:44:48;100575.25;;;14.09;78.74
73063;BME280;61230;46.328;19.972;2023-05-07T03:47:16;100572.09;;;14.13;79.19
73063;BME280;61230;46.328;19.972;2023-05-07T03:49:43;100577.09;;;14.16;78.18
73063;BME280;61230;46.328;19.972;2023-05-07T03:52:12;100569.66;;;14.20;77.48
73063;BME280;61230;46.328;19.972;2023-05-07T03:54:40;100576.66;;;14.29;78.31
73063;BME280;61230;46.328;19.972;2023-05-07T03:57:08;100513.31;;;13.94;78.75
73063;BME280;61230;46.328;19.972;2023-05-07T03:59:36;100580.31;;;14.36;78.47
73063;BME280;61230;46.328;19.972;2023-05-07T04:02:04;100584.19;;;14.42;77.45
73063;BME280;61230;46.328;19.972;2023-05-07T04:04:32;100589.81;;;14.47;77.18
73063;BME280;61230;46.328;19.972;2023-05-07T04:07:00;100590.97;;;14.52;77.09
73063;BME280;61230;46.328;19.972;2023-05-07T04:09:29;100588.34;;;14.52;76.77
73063;BME280;61230;46.328;19.972;2023-05-07T04:11:57;100597.44;;;14.58;76.45
73063;BME280;61230;46.328;19.972;2023-05-07T04:14:25;100602.75;;;14.58;76.29
73063;BME280;61230;46.328;19.972;2023-05-07T04:16:52;100605.22;;;14.59;75.80
73063;BME280;61230;46.328;19.972;2023-05-07T04:19:20;100600.28;;;14.64;76.15
73063;BME280;61230;46.328;19.972;2023-05-07T04:21:49;100610.88;;;14.64;76.44
73063;BME280;61230;46.328;19.972;2023-05-07T04:24:16;100607.06;;;14.67;76.37
73063;BME280;61230;46.328;19.972;2023-05-07T04:26:45;100617.81;;;14.73;76.49
73063;BME280;61230;46.328;19.972;2023-05-07T04:29:13;100619.81;;;14.79;76.44
73063;BME280;61230;46.328;19.972;2023-05-07T04:31:40;100621.66;;;14.79;76.16
73063;BME280;61230;46.328;19.972;2023-05-07T04:34:12;100626.47;;;14.83;75.85
73063;BME280;61230;46.328;19.972;2023-05-07T04:36:40;100629.63;;;14.95;74.87
73063;BME280;61230;46.328;19.972;2023-05-07T04:39:10;100583.06;;;14.68;74.36
73063;BME280;61230;46.328;19.972;2023-05-07T04:41:39;100572.16;;;14.79;74.13
73063;BME280;61230;46.328;19.972;2023-05-07T04:44:06;100593.69;;;15.09;73.45
73063;BME280;61230;46.328;19.972;2023-05-07T04:46:34;100624.84;;;15.39;73.51
73063;BME280;61230;46.328;19.972;2023-05-07T04:49:02;100629.47;;;15.45;73.13
73063;BME280;61230;46.328;19.972;2023-05-07T04:51:30;100635.81;;;15.52;72.36
73063;BME280;61230;46.328;19.972;2023-05-07T04:54:00;100625.69;;;15.56;72.49
73063;BME280;61230;46.328;19.972;2023-05-07T04:56:28;100626.38;;;15.58;72.72
73063;BME280;61230;46.328;19.972;2023-05-07T04:58:57;100633.50;;;15.57;72.92
73063;BME280;61230;46.328;19.972;2023-05-07T05:01:25;100635.62;;;15.62;72.97
73063;BME280;61230;46.328;19.972;2023-05-07T05:03:54;100634.47;;;15.64;73.28
73063;BME280;61230;46.328;19.972;2023-05-07T05:06:21;100628.66;;;15.69;73.06
73063;BME280;61230;46.328;19.972;2023-05-07T05:08:49;100626.66;;;15.79;72.61
73063;BME280;61230;46.328;19.972;2023-05-07T05:11:17;100628.28;;;15.88;72.43
73063;BME280;61230;46.328;19.972;2023-05-07T05:13:45;100629.63;;;15.92;71.84
73063;BME280;61230;46.328;19.972;2023-05-07T05:16:15;100632.28;;;15.92;71.25
73063;BME280;61230;46.328;19.972;2023-05-07T05:18:43;100634.94;;;15.92;71.20
73063;BME280;61230;46.328;19.972;2023-05-07T05:21:11;100639.19;;;16.01;71.06
73063;BME280;61230;46.328;19.972;2023-05-07T05:23:40;100642.50;;;16.11;71.13
73063;BME280;61230;46.328;19.972;2023-05-07T05:26:08;100582.22;;;15.73;71.23
73063;BME280;61230;46.328;19.972;2023-05-07T05:28:36;100648.47;;;16.13;71.54
73063;BME280;61230;46.328;19.972;2023-05-07T05:31:04;100647.59;;;16.21;71.08
73063;BME280;61230;46.328;19.972;2023-05-07T05:33:33;100638.38;;;16.08;70.36
73063;BME280;61230;46.328;19.972;2023-05-07T05:36:01;100613.28;;;16.11;69.77
73063;BME280;61230;46.328;19.972;2023-05-07T05:38:29;100638.75;;;16.36;69.92
73063;BME280;61230;46.328;19.972;2023-05-07T05:40:57;100639.06;;;16.41;69.55
73063;BME280;61230;46.328;19.972;2023-05-07T05:43:25;100623.81;;;16.35;69.62
73063;BME280;61230;46.328;19.972;2023-05-07T05:45:53;100644.03;;;16.44;69.46
73063;BME280;61230;46.328;19.972;2023-05-07T05:48:23;100655.44;;;16.53;69.36
73063;BME280;61230;46.328;19.972;2023-05-07T05:50:51;100659.25;;;16.58;69.19
73063;BME280;61230;46.328;19.972;2023-05-07T05:53:18;100662.75;;;16.59;69.27
73063;BME280;61230;46.328;19.972;2023-05-07T05:55:46;100658.28;;;16.59;69.02
73063;BME280;61230;46.328;19.972;2023-05-07T05:58:14;100658.09;;;16.61;68.25
73063;BME280;61230;46.328;19.972;2023-05-07T06:00:44;100653.84;;;16.75;68.25
73063;BME280;61230;46.328;19.972;2023-05-07T06:03:12;100648.81;;;16.88;67.27
73063;BME280;61230;46.328;19.972;2023-05-07T06:05:41;100653.84;;;17.05;67.71
73063;BME280;61230;46.328;19.972;2023-05-07T06:08:09;100661.56;;;17.15;66.31
73063;BME280;61230;46.328;19.972;2023-05-07T06:10:37;100661.28;;;17.33;65.79
73063;BME280;61230;46.328;19.972;2023-05-07T06:13:07;100612.66;;;17.24;64.96
73063;BME280;61230;46.328;19.972;2023-05-07T06:15:36;100653.06;;;17.65;63.41
73063;BME280;61230;46.328;19.972;2023-05-07T06:18:04;100629.19;;;17.71;63.39
73063;BME280;61230;46.328;19.972;2023-05-07T06:20:32;100647.03;;;17.86;62.58
73063;BME280;61230;46.328;19.972;2023-05-07T06:23:01;100651.00;;;18.04;62.55
73063;BME280;61230;46.328;19.972;2023-05-07T06:25:29;100646.59;;;18.11;61.89
73063;BME280;61230;46.328;19.972;2023-05-07T06:27:57;100644.37;;;18.15;61.15
73063;BME280;61230;46.328;19.972;2023-05-07T06:30:24;100650.81;;;18.20;60.47
73063;BME280;61230;46.328;19.972;2023-05-07T06:32:53;100647.16;;;18.36;60.54
73063;BME280;61230;46.328;19.972;2023-05-07T06:35:20;100637.22;;;18.45;60.01
73063;BME280;61230;46.328;19.972;2023-05-07T06:37:48;100645.28;;;18.51;59.79
73063;BME280;61230;46.328;19.972;2023-05-07T06:40:16;100637.16;;;18.74;59.73
73063;BME280;61230;46.328;19.972;2023-05-07T06:42:44;100631.62;;;18.90;59.46
73063;BME280;61230;46.328;19.972;2023-05-07T06:45:15;100631.34;;;19.06;59.30
73063;BME280;61230;46.328;19.972;2023-05-07T06:47:43;100622.84;;;19.17;59.15
73063;BME280;61230;46.328;19.972;2023-05-07T06:50:11;100616.16;;;19.28;58.80
73063;BME280;61230;46.328;19.972;2023-05-07T06:52:39;100624.31;;;19.41;58.46
73063;BME280;61230;46.328;19.972;2023-05-07T06:55:08;100620.97;;;19.60;57.66
73063;BME280;61230;46.328;19.972;2023-05-07T06:57:35;100619.16;;;19.67;56.28
73063;BME280;61230;46.328;19.972;2023-05-07T07:00:04;100624.63;;;19.80;55.92
73063;BME280;61230;46.328;19.972;2023-05-07T07:02:37;100619.84;;;20.03;55.45
73063;BME280;61230;46.328;19.972;2023-05-07T07:05:05;100631.06;;;20.27;55.27
73063;BME280;61230;46.328;19.972;2023-05-07T07:07:33;100622.31;;;20.39;54.96
73063;BME280;61230;46.328;19.972;2023-05-07T07:10:01;100586.19;;;20.16;53.84
73063;BME280;61230;46.328;19.972;2023-05-07T07:12:30;100634.41;;;20.35;54.43
73063;BME280;61230;46.328;19.972;2023-05-07T07:14:58;100629.59;;;20.65;53.86
73063;BME280;61230;46.328;19.972;2023-05-07T07:17:26;100626.34;;;20.89;53.40
73063;BME280;61230;46.328;19.972;2023-05-07T07:19:56;100628.72;;;21.18;53.21
73063;BME280;61230;46.328;19.972;2023-05-07T07:22:23;100618.44;;;21.42;53.11
73063;BME280;61230;46.328;19.972;2023-05-07T07:24:51;100630.59;;;21.44;52.53
73063;BME280;61230;46.328;19.972;2023-05-07T07:27:19;100624.00;;;21.47;52.97
73063;BME280;61230;46.328;19.972;2023-05-07T07:29:47;100630.97;;;21.74;51.80
73063;BME280;61230;46.328;19.972;2023-05-07T07:32:15;100628.88;;;21.83;51.49
73063;BME280;61230;46.328;19.972;2023-05-07T07:34:44;100635.31;;;21.88;51.78
73063;BME280;61230;46.328;19.972;2023-05-07T07:37:12;100631.59;;;21.96;51.42
73063;BME280;61230;46.328;19.972;2023-05-07T07:39:39;100626.84;;;22.04;51.31
73063;BME280;61230;46.328;19.972;2023-05-07T07:42:08;100626.22;;;22.02;51.70
73063;BME280;61230;46.328;19.972;2023-05-07T07:44:36;100628.88;;;22.09;51.67
73063;BME280;61230;46.328;19.972;2023-05-07T07:47:04;100589.97;;;21.93;51.12
73063;BME280;61230;46.328;19.972;2023-05-07T07:49:32;100633.72;;;22.45;50.50
73063;BME280;61230;46.328;19.972;2023-05-07T07:52:01;100630.37;;;22.56;50.18
73063;BME280;61230;46.328;19.972;2023-05-07T07:54:29;100627.56;;;22.82;49.31
73063;BME280;61230;46.328;19.972;2023-05-07T07:56:57;100629.66;;;23.11;47.97
73063;BME280;61230;46.328;19.972;2023-05-07T07:59:26;100628.62;;;23.37;46.68
73063;BME280;61230;46.328;19.972;2023-05-07T08:01:54;100636.97;;;23.29;46.21
73063;BME280;61230;46.328;19.972;2023-05-07T08:04:25;100634.44;;;23.40;45.95
73063;BME280;61230;46.328;19.972;2023-05-07T08:06:53;100627.81;;;23.36;44.97
73063;BME280;61230;46.328;19.972;2023-05-07T08:09:21;100589.06;;;23.26;45.23
73063;BME280;61230;46.328;19.972;2023-05-07T08:11:49;100631.16;;;23.63;45.16
73063;BME280;61230;46.328;19.972;2023-05-07T08:14:17;100621.31;;;23.75;44.51
73063;BME280;61230;46.328;19.972;2023-05-07T08:16:45;100619.09;;;23.90;44.85
73063;BME280;61230;46.328;19.972;2023-05-07T08:19:14;100621.91;;;24.20;43.91
73063;BME280;61230;46.328;19.972;2023-05-07T08:21:42;100584.81;;;23.86;45.07
73063;BME280;61230;46.328;19.972;2023-05-07T08:24:09;100628.75;;;24.16;44.43
73063;BME280;61230;46.328;19.972;2023-05-07T08:26:37;100633.41;;;23.84;44.36
73063;BME280;61230;46.328;19.972;2023-05-07T08:29:07;100630.06;;;23.89;44.67
73063;BME280;61230;46.328;19.972;2023-05-07T08:31:34;100624.06;;;23.87;44.97
73063;BME280;61230;46.328;19.972;2023-05-07T08:34:03;100607.06;;;23.75;44.12
73063;BME280;61230;46.328;19.972;2023-05-07T08:36:31;100632.91;;;23.94;43.61
73063;BME280;61230;46.328;19.972;2023-05-07T08:38:59;100592.81;;;23.92;43.80
73063;BME280;61230;46.328;19.972;2023-05-07T08:41:27;100631.62;;;23.96;44.02
73063;BME280;61230;46.328;19.972;2023-05-07T08:43:58;100625.12;;;23.86;43.58
73063;BME280;61230;46.328;19.972;2023-05-07T08:46:29;100621.78;;;24.09;42.75
73063;BME280;61230;46.328;19.972;2023-05-07T08:48:58;100620.94;;;24.15;43.57
73063;BME280;61230;46.328;19.972;2023-05-07T08:51:27;100621.81;;;24.45;42.08
73063;BME280;61230;46.328;19.972;2023-05-07T08:53:56;100626.66;;;24.36;42.19
73063;BME280;61230;46.328;19.972;2023-05-07T08:56:24;100622.00;;;24.80;41.69
73063;BME280;61230;46.328;19.972;2023-05-07T08:58:52;100609.84;;;24.41;41.57
73063;BME280;61230;46.328;19.972;2023-05-07T09:01:24;100620.63;;;24.89;41.47
73063;BME280;61230;46.328;19.972;2023-05-07T09:03:53;100614.88;;;24.37;44.10
73063;BME280;61230;46.328;19.972;2023-05-07T09:06:21;100619.44;;;24.67;41.37
73063;BME280;61230;46.328;19.972;2023-05-07T09:08:53;100619.31;;;24.62;41.41
73063;BME280;61230;46.328;19.972;2023-05-07T09:11:24;100624.31;;;24.58;41.78
73063;BME280;61230;46.328;19.972;2023-05-07T09:13:56;100603.34;;;24.48;41.27
73063;BME280;61230;46.328;19.972;2023-05-07T09:16:25;100614.91;;;24.97;40.76
73063;BME280;61230;46.328;19.972;2023-05-07T09:18:54;100609.59;;;25.20;40.30
73063;BME280;61230;46.328;19.972;2023-05-07T09:21:22;100602.75;;;25.47;39.73
73063;BME280;61230;46.328;19.972;2023-05-07T09:23:55;100598.34;;;25.46;38.44
73063;BME280;61230;46.328;19.972;2023-05-07T09:26:24;100606.25;;;25.48;39.57
73063;BME280;61230;46.328;19.972;2023-05-07T09:28:52;100609.03;;;25.41;39.34
73063;BME280;61230;46.328;19.972;2023-05-07T09:31:20;100573.47;;;24.98;39.92
73063;BME280;61230;46.328;19.972;2023-05-07T09:33:52;100612.97;;;25.15;40.05
73063;BME280;61230;46.328;19.972;2023-05-07T09:36:20;100578.53;;;25.06;40.77
73063;BME280;61230;46.328;19.972;2023-05-07T09:38:48;100609.31;;;25.51;40.31
73063;BME280;61230;46.328;19.972;2023-05-07T09:41:19;100605.44;;;25.70;39.42
73063;BME280;61230;46.328;19.972;2023-05-07T09:43:53;100602.50;;;25.84;39.70
73063;BME280;61230;46.328;19.972;2023-05-07T09:46:29;100598.41;;;25.69;39.74
73063;BME280;61230;46.328;19.972;2023-05-07T09:49:01;100596.75;;;25.45;39.42
73063;BME280;61230;46.328;19.972;2023-05-07T09:51:40;100599.47;;;25.57;39.84
73063;BME280;61230;46.328;19.972;2023-05-07T09:54:10;100593.72;;;25.65;39.96
73063;BME280;61230;46.328;19.972;2023-05-07T09:56:39;100597.94;;;25.73;40.44
73063;BME280;61230;46.328;19.972;2023-05-07T09:59:16;100590.22;;;25.64;40.52
73063;BME280;61230;46.328;19.972;2023-05-07T10:01:44;100586.63;;;25.29;39.77
73063;BME280;61230;46.328;19.972;2023-05-07T10:04:13;100551.00;;;25.15;40.30
73063;BME280;61230;46.328;19.972;2023-05-07T10:06:42;100591.59;;;25.79;39.80
73063;BME280;61230;46.328;19.972;2023-05-07T10:09:10;100586.09;;;25.74;39.45
73063;BME280;61230;46.328;19.972;2023-05-07T10:11:40;100588.53;;;25.87;39.58
73063;BME280;61230;46.328;19.972;2023-05-07T10:14:09;100584.78;;;25.41;39.13
73063;BME280;61230;46.328;19.972;2023-05-07T10:16:37;100584.56;;;25.78;38.57
73063;BME280;61230;46.328;19.972;2023-05-07T10:19:06;100586.47;;;25.65;38.77
73063;BME280;61230;46.328;19.972;2023-05-07T10:21:36;100593.19;;;24.32;40.67
73063;BME280;61230;46.328;19.972;2023-05-07T10:26:38;100592.25;;;24.56;40.23
73063;BME280;61230;46.328;19.972;2023-05-07T10:29:16;100586.03;;;25.15;39.36
73063;BME280;61230;46.328;19.972;2023-05-07T10:34:48;100579.34;;;25.18;39.31
73063;BME280;61230;46.328;19.972;2023-05-07T10:37:19;100582.59;;;25.61;39.18
73063;BME280;61230;46.328;19.972;2023-05-07T10:39:47;100575.31;;;25.62;39.03
73063;BME280;61230;46.328;19.972;2023-05-07T10:42:16;100575.66;;;25.77;39.05
73063;BME280;61230;46.328;19.972;2023-05-07T10:44:44;100569.56;;;25.93;38.81
73063;BME280;61230;46.328;19.972;2023-05-07T10:47:14;100563.41;;;26.21;38.49
73063;BME280;61230;46.328;19.972;2023-05-07T10:52:17;100579.25;;;26.06;38.77
73063;BME280;61230;46.328;19.972;2023-05-07T10:54:45;100534.84;;;25.97;37.52
73063;BME280;61230;46.328;19.972;2023-05-07T11:00:48;100567.09;;;26.43;37.23
73063;BME280;61230;46.328;19.972;2023-05-07T11:03:06;100561.97;;;26.30;37.63
73063;BME280;61230;46.328;19.972;2023-05-07T11:05:36;100553.41;;;27.06;36.32
73063;BME280;61230;46.328;19.972;2023-05-07T11:08:05;100549.91;;;26.77;36.32
73063;BME280;61230;46.328;19.972;2023-05-07T11:13:52;100573.72;;;26.24;37.87
73063;BME280;61230;46.328;19.972;2023-05-07T11:16:23;100565.56;;;25.96;38.01
73063;BME280;61230;46.328;19.972;2023-05-07T11:18:53;100571.91;;;25.78;38.55
73063;BME280;61230;46.328;19.972;2023-05-07T11:21:41;100533.22;;;25.38;39.20
73063;BME280;61230;46.328;19.972;2023-05-07T11:24:10;100539.75;;;25.07;40.02
73063;BME280;61230;46.328;19.972;2023-05-07T11:26:49;100586.22;;;24.91;40.29
73063;BME280;61230;46.328;19.972;2023-05-07T11:29:20;100597.84;;;24.25;44.85
73063;BME280;61230;46.328;19.972;2023-05-07T11:31:51;100588.97;;;23.64;48.27
73063;BME280;61230;46.328;19.972;2023-05-07T11:34:25;100587.81;;;23.53;48.88
73063;BME280;61230;46.328;19.972;2023-05-07T11:36:55;100577.47;;;23.32;50.53
73063;BME280;61230;46.328;19.972;2023-05-07T11:39:25;100589.75;;;22.90;51.36
73063;BME280;61230;46.328;19.972;2023-05-07T11:41:52;100573.19;;;22.62;51.39
73063;BME280;61230;46.328;19.972;2023-05-07T11:44:20;100590.75;;;22.58;52.07
73063;BME280;61230;46.328;19.972;2023-05-07T11:46:48;100548.75;;;22.39;52.73
73063;BME280;61230;46.328;19.972;2023-05-07T11:49:17;100591.41;;;22.47;51.72
73063;BME280;61230;46.328;19.972;2023-05-07T11:51:44;100586.06;;;22.47;51.09
73063;BME280;61230;46.328;19.972;2023-05-07T11:54:15;100590.19;;;22.43;50.35
73063;BME280;61230;46.328;19.972;2023-05-07T11:56:44;100594.84;;;22.16;51.33
73063;BME280;61230;46.328;19.972;2023-05-07T11:59:17;100603.09;;;22.14;52.51
73063;BME280;61230;46.328;19.972;2023-05-07T12:01:45;100600.59;;;22.19;53.16
73063;BME280;61230;46.328;19.972;2023-05-07T12:04:14;100590.94;;;22.05;54.78
73063;BME280;61230;46.328;19.972;2023-05-07T12:06:41;100594.25;;;22.07;54.28
73063;BME280;61230;46.328;19.972;2023-05-07T12:09:09;100605.59;;;22.03;54.52
73063;BME280;61230;46.328;19.972;2023-05-07T12:11:39;100602.53;;;21.99;54.47
73063;BME280;61230;46.328;19.972;2023-05-07T12:14:07;100557.78;;;22.00;53.94
73063;BME280;61230;46.328;19.972;2023-05-07T12:16:39;100565.78;;;22.06;53.52
73063;BME280;61230;46.328;19.972;2023-05-07T12:19:08;100593.28;;;22.46;52.92
73063;BME280;61230;46.328;19.972;2023-05-07T12:21:42;100604.16;;;22.58;52.17
73063;BME280;61230;46.328;19.972;2023-05-07T12:24:10;100601.62;;;22.63;52.28
73063;BME280;61230;46.328;19.972;2023-05-07T12:26:38;100583.28;;;22.66;51.77
73063;BME280;61230;46.328;19.972;2023-05-07T12:29:08;100600.75;;;22.31;52.75
73063;BME280;61230;46.328;19.972;2023-05-07T12:31:35;100606.50;;;22.41;52.77
73063;BME280;61230;46.328;19.972;2023-05-07T12:34:04;100567.88;;;22.04;53.78
73063;BME280;61230;46.328;19.972;2023-05-07T12:36:38;100601.34;;;22.40;54.23
73063;BME280;61230;46.328;19.972;2023-05-07T12:39:07;100588.19;;;22.76;52.95
73063;BME280;61230;46.328;19.972;2023-05-07T12:41:52;100602.38;;;23.14;51.11
73063;BME280;61230;46.328;19.972;2023-05-07T12:44:23;100600.34;;;23.41;50.32
73063;BME280;61230;46.328;19.972;2023-05-07T12:46:51;100602.84;;;23.61;49.74
73063;BME280;61230;46.328;19.972;2023-05-07T12:49:20;100609.13;;;23.73;49.73
73063;BME280;61230;46.328;19.972;2023-05-07T12:51:51;100606.53;;;23.84;49.80
73063;BME280;61230;46.328;19.972;2023-05-07T12:54:29;100602.00;;;24.03;49.58
73063;BME280;61230;46.328;19.972;2023-05-07T12:57:06;100604.31;;;24.84;47.55
73063;BME280;61230;46.328;19.972;2023-05-07T12:59:38;100594.00;;;25.22;45.25
73063;BME280;61230;46.328;19.972;2023-05-07T13:02:08;100593.31;;;25.27;46.32
73063;BME280;61230;46.328;19.972;2023-05-07T13:04:37;100591.84;;;25.65;44.79